Time;durP1;ratioP1;P1;durP2;ratioP2;P2;SDS_P1;SDS_P2;PMS_P1;PMS_P2;Temp;Humidity;BMP_temperature;BMP_pressure;BME280_temperature;BME280_humidity;BME280_pressure;Samples;Min_cycle;Max_cycle;Signal;HPM_P1;HPM_P2
2021/08/24 00:02:12;;;;;;;5.70;5.20;;;;;;;18.92;100.00;96565.75;4953081;29;20341;-78
2021/08/24 00:04:40;;;;;;;6.13;5.57;;;;;;;18.92;100.00;96565.75;4953498;28;20209;-78
2021/08/24 00:07:07;;;;;;;5.20;4.80;;;;;;;18.98;100.00;96556.91;4953252;28;20261;-78
2021/08/24 00:09:36;;;;;;;5.83;5.13;;;;;;;18.90;100.00;96562.44;4953145;28;20209;-78
2021/08/24 00:12:04;;;;;;;6.63;5.07;;;;;;;18.66;100.00;96561.97;4953302;28;20198;-78
2021/08/24 00:14:32;;;;;;;5.60;5.20;;;;;;;18.77;100.00;96556.09;4953325;29;20209;-79
2021/08/24 00:17:00;;;;;;;6.60;5.67;;;;;;;18.60;100.00;96559.28;4953562;28;20630;-78
2021/08/24 00:19:28;;;;;;;5.57;5.07;;;;;;;18.59;100.00;96553.16;4953392;29;20593;-78
2021/08/24 00:21:55;;;;;;;5.63;5.10;;;;;;;18.53;100.00;96552.13;4953321;28;20256;-78
2021/08/24 00:24:23;;;;;;;7.43;5.37;;;;;;;18.56;100.00;96558.06;4953242;29;20247;-78
2021/08/24 00:26:50;;;;;;;5.83;5.33;;;;;;;18.75;100.00;96557.31;4955623;28;20201;-78
2021/08/24 00:29:17;;;;;;;6.73;5.47;;;;;;;18.56;100.00;96552.75;4956416;29;20198;-78
2021/08/24 00:31:44;;;;;;;6.93;5.57;;;;;;;18.41;100.00;96552.91;4956495;28;20248;-79
2021/08/24 00:34:13;;;;;;;5.60;5.10;;;;;;;18.41;100.00;96560.91;4965758;28;20201;-78
2021/08/24 00:36:40;;;;;;;5.97;5.47;;;;;;;18.39;100.00;96552.28;4975387;28;20630;-78
2021/08/24 00:39:07;;;;;;;6.93;5.70;;;;;;;18.35;100.00;96551.88;4975074;28;20914;-78
2021/08/24 00:41:37;;;;;;;6.00;5.40;;;;;;;18.28;100.00;96549.19;4975193;28;20225;-78
2021/08/24 00:44:06;;;;;;;5.93;5.37;;;;;;;18.47;100.00;96547.63;4975107;28;20814;-78
2021/08/24 00:46:37;;;;;;;6.07;5.53;;;;;;;18.53;100.00;96541.50;4974898;28;20255;-78
2021/08/24 00:49:07;;;;;;;6.30;5.70;;;;;;;18.35;100.00;96546.53;4974139;28;20212;-78
2021/08/24 00:51:39;;;;;;;6.17;5.57;;;;;;;18.50;100.00;96539.22;4974962;28;20205;-78
2021/08/24 00:54:10;;;;;;;5.90;5.20;;;;;;;18.32;100.00;96533.63;4974255;28;20189;-78
2021/08/24 00:56:38;;;;;;;6.20;5.70;;;;;;;18.21;100.00;96537.69;4975681;28;20223;-77
2021/08/24 00:59:07;;;;;;;6.87;5.77;;;;;;;18.16;100.00;96521.53;4975385;28;20197;-77
2021/08/24 01:01:35;;;;;;;6.20;5.63;;;;;;;18.22;100.00;96531.38;4975185;28;20197;-78
2021/08/24 01:04:02;;;;;;;5.30;4.80;;;;;;;18.13;100.00;96523.78;4975372;28;20197;-78
2021/08/24 01:06:38;;;;;;;6.23;5.63;;;;;;;18.15;100.00;96530.53;4975071;28;20201;-78
2021/08/24 01:09:19;;;;;;;6.33;5.40;;;;;;;18.14;100.00;96528.88;4975291;28;20220;-78
2021/08/24 01:11:56;;;;;;;10.00;6.37;;;;;;;18.17;100.00;96525.81;4975016;28;20189;-78
2021/08/24 01:14:36;;;;;;;6.47;5.50;;;;;;;17.98;100.00;96524.75;4975201;28;20279;-78
2021/08/24 01:17:10;;;;;;;6.20;5.70;;;;;;;17.89;100.00;96525.94;4974984;28;20650;-77
2021/08/24 01:19:55;;;;;;;5.87;5.27;;;;;;;17.94;100.00;96520.84;4974929;28;20219;-78
2021/08/24 01:23:01;;;;;;;6.97;6.43;;;;;;;17.84;100.00;96517.75;4974840;28;20220;-77
2021/08/24 01:25:35;;;;;;;6.27;5.70;;;;;;;17.89;100.00;96514.47;4948906;28;20645;-77
2021/08/24 01:28:10;;;;;;;6.70;5.97;;;;;;;17.98;100.00;96510.63;4974856;28;20185;-78
2021/08/24 01:31:12;;;;;;;6.10;5.60;;;;;;;17.79;100.00;96506.84;4974909;28;20228;-78
2021/08/24 01:33:47;;;;;;;6.10;5.60;;;;;;;17.68;100.00;96510.88;4974771;28;20196;-78
2021/08/24 01:36:20;;;;;;;5.00;4.60;;;;;;;17.77;100.00;96516.88;4974572;28;20185;-77
2021/08/24 01:38:58;;;;;;;5.93;5.50;;;;;;;17.67;100.00;96509.25;4974485;28;20185;-78
2021/08/24 01:41:34;;;;;;;5.93;5.20;;;;;;;17.75;100.00;96506.41;4974469;28;20276;-78
2021/08/24 01:44:06;;;;;;;5.10;4.60;;;;;;;17.67;100.00;96513.75;4974458;28;20319;-78
2021/08/24 01:46:43;;;;;;;7.43;5.90;;;;;;;17.62;100.00;96511.66;4974382;28;20189;-78
2021/08/24 01:49:13;;;;;;;5.90;5.40;;;;;;;17.66;100.00;96510.22;4974807;28;20193;-78
2021/08/24 01:51:45;;;;;;;4.83;4.43;;;;;;;17.45;100.00;96518.31;4973980;28;20197;-77
2021/08/24 01:54:18;;;;;;;6.57;5.27;;;;;;;17.40;100.00;96510.94;4974490;28;20650;-77
2021/08/24 01:56:48;;;;;;;6.10;5.50;;;;;;;17.47;100.00;96521.59;4974236;28;20255;-77
2021/08/24 01:59:21;;;;;;;8.33;5.17;;;;;;;17.58;100.00;96507.75;4974424;28;20262;-77
2021/08/24 02:01:55;;;;;;;5.87;5.27;;;;;;;17.55;100.00;96503.66;4973973;28;20283;-77
2021/08/24 02:04:28;;;;;;;6.23;5.70;;;;;;;17.55;100.00;96498.31;4974633;28;20189;-77
2021/08/24 02:06:58;;;;;;;5.93;5.47;;;;;;;17.59;100.00;96496.94;4973998;28;20202;-77
2021/08/24 02:09:33;;;;;;;8.13;5.93;;;;;;;17.59;100.00;96493.44;4974153;28;20556;-78
2021/08/24 02:12:01;;;;;;;5.50;5.00;;;;;;;17.62;100.00;96494.88;4973856;28;20276;-77
2021/08/24 02:14:29;;;;;;;6.73;5.93;;;;;;;17.45;100.00;96483.75;4974044;28;20203;-77
2021/08/24 02:16:59;;;;;;;5.77;5.27;;;;;;;17.52;100.00;96479.28;4973737;28;20693;-77
2021/08/24 02:19:38;;;;;;;7.00;5.60;;;;;;;17.41;100.00;96482.50;4974035;28;20595;-77
2021/08/24 02:22:13;;;;;;;5.70;5.20;;;;;;;17.39;100.00;96476.56;4973989;28;20210;-77
2021/08/24 02:24:44;;;;;;;6.20;5.70;;;;;;;17.35;100.00;96479.66;4974145;28;20211;-78
2021/08/24 02:27:17;;;;;;;6.50;5.90;;;;;;;17.44;100.00;96480.28;4973655;28;20185;-78
2021/08/24 02:29:45;;;;;;;7.67;5.73;;;;;;;17.21;100.00;96480.56;4973631;28;20192;-78
2021/08/24 02:32:19;;;;;;;6.50;5.90;;;;;;;17.14;100.00;96476.22;4973440;28;20201;-78
2021/08/24 02:34:53;;;;;;;6.83;5.87;;;;;;;17.07;100.00;96470.88;4974064;28;20200;-78
2021/08/24 02:37:28;;;;;;;8.70;6.17;;;;;;;17.01;100.00;96475.13;4973674;28;20188;-78
2021/08/24 02:40:04;;;;;;;7.13;6.47;;;;;;;17.00;100.00;96478.78;4973516;28;20185;-78
2021/08/24 02:42:37;;;;;;;7.33;6.73;;;;;;;17.15;100.00;96470.72;4973142;28;20239;-77
2021/08/24 02:45:10;;;;;;;6.97;6.27;;;;;;;17.01;100.00;96469.81;4973960;28;20193;-77
2021/08/24 02:47:39;;;;;;;7.30;6.27;;;;;;;16.86;100.00;96467.25;4973352;28;20194;-78
2021/08/24 02:50:09;;;;;;;9.13;6.47;;;;;;;16.88;100.00;96464.41;4973145;28;20193;-78
2021/08/24 02:52:39;;;;;;;6.90;6.30;;;;;;;16.74;100.00;96463.50;4973032;28;20201;-77
2021/08/24 02:55:09;;;;;;;6.87;6.17;;;;;;;16.72;100.00;96462.81;4973793;28;20594;-78
2021/08/24 02:57:37;;;;;;;7.30;6.60;;;;;;;16.52;100.00;96461.84;4972980;28;20203;-77
2021/08/24 03:00:06;;;;;;;6.43;5.83;;;;;;;16.79;100.00;96466.38;4973654;28;20201;-78
2021/08/24 03:02:33;;;;;;;7.00;6.27;;;;;;;16.75;100.00;96467.78;4973163;28;20705;-78
2021/08/24 03:05:01;;;;;;;7.33;6.63;;;;;;;16.79;100.00;96465.56;4973379;28;20201;-78
2021/08/24 03:07:31;;;;;;;7.33;5.83;;;;;;;16.79;100.00;96465.56;4973032;28;20205;-77
2021/08/24 03:10:03;;;;;;;6.47;5.87;;;;;;;16.74;100.00;96460.00;4973203;28;20211;-78
2021/08/24 03:12:38;;;;;;;6.17;5.67;;;;;;;16.76;100.00;96466.75;4973290;28;20603;-78
2021/08/24 03:15:12;;;;;;;6.07;5.57;;;;;;;16.76;100.00;96463.28;4973168;28;20649;-78
2021/08/24 03:17:45;;;;;;;6.63;6.03;;;;;;;16.53;100.00;96466.97;4973165;28;20189;-78
2021/08/24 03:20:14;;;;;;;8.87;5.83;;;;;;;16.63;100.00;96461.34;4973103;28;20185;-78
2021/08/24 03:22:43;;;;;;;7.37;5.67;;;;;;;16.39;100.00;96468.69;4972884;28;20323;-78
2021/08/24 03:25:13;;;;;;;6.40;5.77;;;;;;;16.49;100.00;96464.91;4961286;28;20216;-79
2021/08/24 03:27:43;;;;;;;6.60;5.97;;;;;;;16.56;100.00;96461.28;4969721;28;20201;-78
2021/08/24 03:30:13;;;;;;;7.07;5.53;;;;;;;16.69;100.00;96462.38;4977148;28;20211;-79
2021/08/24 03:32:40;;;;;;;7.50;6.73;;;;;;;16.54;100.00;96463.28;4992112;28;20662;-77
2021/08/24 03:35:08;;;;;;;6.63;6.03;;;;;;;16.64;100.00;96460.31;4991608;28;20196;-77
2021/08/24 03:37:36;;;;;;;6.03;5.53;;;;;;;16.76;100.00;96457.97;4991413;28;20206;-77
2021/08/24 03:40:05;;;;;;;6.47;5.87;;;;;;;16.62;100.00;96452.53;4992233;28;20292;-77
2021/08/24 03:42:34;;;;;;;10.10;6.53;;;;;;;16.70;100.00;96459.56;4991964;28;20243;-77
2021/08/24 03:45:02;;;;;;;7.00;6.30;;;;;;;16.65;100.00;96457.47;4992295;28;20208;-78
2021/08/24 03:47:29;;;;;;;16.83;7.20;;;;;;;16.77;100.00;96462.28;4992137;28;20192;-77
2021/08/24 03:49:56;;;;;;;6.97;6.33;;;;;;;16.54;100.00;96462.47;4992125;28;20723;-77
2021/08/24 03:52:24;;;;;;;6.43;5.83;;;;;;;16.62;100.00;96459.66;4992127;28;20211;-77
2021/08/24 03:54:51;;;;;;;6.77;6.10;;;;;;;16.37;100.00;96462.72;4992285;28;20208;-78
2021/08/24 03:57:19;;;;;;;10.53;7.07;;;;;;;16.41;100.00;96461.34;4991996;28;20202;-77
2021/08/24 03:59:47;;;;;;;8.30;6.13;;;;;;;16.34;100.00;96462.28;4992834;28;20210;-77
2021/08/24 04:02:15;;;;;;;7.47;6.10;;;;;;;16.48;100.00;96461.38;4996040;28;20294;-78
2021/08/24 04:04:42;;;;;;;7.10;6.40;;;;;;;16.57;100.00;96456.78;4995564;28;20227;-77
2021/08/24 04:07:09;;;;;;;8.40;6.50;;;;;;;16.41;100.00;96468.47;4995620;28;20670;-78
2021/08/24 04:09:37;;;;;;;6.93;6.33;;;;;;;16.45;100.00;96463.59;4996035;28;20208;-77
2021/08/24 04:12:04;;;;;;;6.33;5.73;;;;;;;16.41;100.00;96469.28;4995880;28;20204;-77
2021/08/24 04:14:31;;;;;;;9.33;6.13;;;;;;;16.61;100.00;96458.03;4995425;28;20206;-77
2021/08/24 04:17:00;;;;;;;7.63;6.83;;;;;;;16.45;100.00;96464.41;4995451;28;20262;-77
2021/08/24 04:19:28;;;;;;;7.43;6.40;;;;;;;16.54;100.00;96462.47;4995826;28;20235;-77
2021/08/24 04:21:55;;;;;;;15.77;7.33;;;;;;;16.48;100.00;96461.38;4995780;28;20650;-77
2021/08/24 04:24:22;;;;;;;8.27;6.40;;;;;;;16.45;100.00;96460.94;4995386;28;20228;-77
2021/08/24 04:26:49;;;;;;;11.33;6.50;;;;;;;16.47;100.00;96454.44;4995054;28;20291;-77
2021/08/24 04:29:16;;;;;;;13.77;7.57;;;;;;;16.57;100.00;96449.66;4995674;28;20212;-77
2021/08/24 04:31:44;;;;;;;23.37;8.53;;;;;;;16.70;100.00;96459.56;4995175;28;20204;-77
2021/08/24 04:34:12;;;;;;;11.67;6.27;;;;;;;16.64;100.00;96452.34;4994871;28;20196;-77
2021/08/24 04:36:40;;;;;;;8.73;6.70;;;;;;;16.36;100.00;96457.63;4994883;28;20211;-77
2021/08/24 04:39:07;;;;;;;5.87;5.33;;;;;;;16.46;100.00;96452.81;4995281;28;20581;-77
2021/08/24 04:41:34;;;;;;;8.03;6.50;;;;;;;16.60;100.00;96451.91;4995290;28;20196;-77
2021/08/24 04:44:02;;;;;;;11.30;6.17;;;;;;;16.67;100.00;96454.63;4995270;28;20235;-77
2021/08/24 04:46:29;;;;;;;8.20;6.27;;;;;;;16.71;100.00;96455.06;4994692;28;20206;-77
2021/08/24 04:48:56;;;;;;;8.83;5.93;;;;;;;16.73;100.00;96450.38;4995156;28;20673;-77
2021/08/24 04:51:25;;;;;;;10.50;6.60;;;;;;;16.51;100.00;96454.88;4995136;28;20238;-77
2021/08/24 04:53:52;;;;;;;6.83;6.20;;;;;;;16.69;100.00;96449.94;4995416;28;20199;-77
2021/08/24 04:56:19;;;;;;;8.43;5.77;;;;;;;16.91;100.00;96450.75;4994932;28;20204;-77
2021/08/24 04:58:47;;;;;;;6.10;5.57;;;;;;;17.07;100.00;96453.09;4995188;28;20210;-77
2021/08/24 05:01:14;;;;;;;6.87;5.90;;;;;;;17.26;100.00;96448.94;4994799;28;20576;-77
2021/08/24 05:03:41;;;;;;;6.87;6.27;;;;;;;17.38;100.00;96448.38;4995134;28;20311;-77
2021/08/24 05:06:09;;;;;;;7.67;5.23;;;;;;;17.48;100.00;96451.47;4994456;28;20203;-77
2021/08/24 05:08:37;;;;;;;6.53;5.90;;;;;;;17.61;100.00;96450.72;4994695;28;20291;-77
2021/08/24 05:11:04;;;;;;;5.83;5.23;;;;;;;17.69;100.00;96447.91;4994661;28;20282;-77
2021/08/24 05:13:32;;;;;;;6.23;5.73;;;;;;;17.73;100.00;96449.94;4994074;28;20295;-77
2021/08/24 05:15:59;;;;;;;6.70;5.70;;;;;;;17.79;100.00;96457.16;4994605;28;20200;-77
2021/08/24 05:18:26;;;;;;;6.10;5.50;;;;;;;17.86;100.00;96456.38;4994638;28;20201;-77
2021/08/24 05:21:02;;;;;;;5.43;4.93;;;;;;;17.94;100.00;96456.19;4994484;28;20204;-77
2021/08/24 05:23:30;;;;;;;6.07;5.57;;;;;;;17.99;100.00;96461.75;4994084;28;20210;-78
2021/08/24 05:25:59;;;;;;;8.23;6.03;;;;;;;18.01;100.00;96462.34;4994687;28;20225;-77
2021/08/24 05:28:26;;;;;;;5.63;5.13;;;;;;;18.12;100.00;96466.28;4994361;28;20691;-77
2021/08/24 05:30:53;;;;;;;5.97;5.47;;;;;;;18.18;100.00;96468.13;4994514;28;20227;-77
2021/08/24 05:33:20;;;;;;;6.30;5.27;;;;;;;18.29;100.00;96468.38;4994187;28;20251;-77
2021/08/24 05:35:48;;;;;;;6.43;5.60;;;;;;;18.48;100.00;96479.22;4994695;28;20262;-77
2021/08/24 05:38:15;;;;;;;6.83;5.53;;;;;;;18.57;100.00;96480.69;4994293;28;20211;-77
2021/08/24 05:40:42;;;;;;;7.00;5.33;;;;;;;18.66;100.00;96479.44;4994174;28;20258;-77
2021/08/24 05:43:11;;;;;;;5.60;5.10;;;;;;;18.73;100.00;96487.47;4993351;28;20595;-77
2021/08/24 05:45:38;;;;;;;6.10;5.50;;;;;;;18.83;100.00;96492.38;4994334;28;20204;-77
2021/08/24 05:48:06;;;;;;;7.30;5.90;;;;;;;18.92;100.00;96488.50;4994152;28;20204;-77
2021/08/24 05:50:33;;;;;;;5.50;5.00;;;;;;;19.03;100.00;96490.53;4993834;28;20838;-77
2021/08/24 05:53:00;;;;;;;7.27;5.80;;;;;;;19.14;100.00;96492.56;4993731;28;20196;-77
2021/08/24 05:55:27;;;;;;;11.77;7.23;;;;;;;19.23;100.00;96491.34;4993819;28;20299;-76
2021/08/24 05:57:55;;;;;;;8.20;5.30;;;;;;;19.33;100.00;96493.59;4993609;28;20200;-77
2021/08/24 06:00:24;;;;;;;5.83;5.33;;;;;;;19.51;100.00;96489.44;4993561;28;20691;-77
2021/08/24 06:02:51;;;;;;;6.07;5.17;;;;;;;19.56;100.00;96485.09;4993614;28;20204;-77
2021/08/24 06:05:18;;;;;;;6.43;5.93;;;;;;;19.65;100.00;96489.22;4993822;28;20228;-77
2021/08/24 06:07:46;;;;;;;7.13;5.90;;;;;;;19.81;100.00;96485.28;4993592;28;20197;-77
2021/08/24 06:10:13;;;;;;;5.80;5.07;;;;;;;19.90;100.00;96491.16;4993604;28;20206;-77
2021/08/24 06:12:40;;;;;;;5.47;5.03;;;;;;;19.95;100.00;96494.84;4993182;28;20296;-77
2021/08/24 06:15:08;;;;;;;5.90;5.40;;;;;;;20.13;100.00;96491.47;4993487;28;20200;-77
2021/08/24 06:17:37;;;;;;;6.17;5.50;;;;;;;20.24;100.00;96489.97;4993444;28;20623;-77
2021/08/24 06:20:05;;;;;;;6.30;5.60;;;;;;;20.49;100.00;96494.56;4993446;28;20295;-77
2021/08/24 06:22:32;;;;;;;6.20;5.67;;;;;;;20.58;100.00;96493.31;4976813;28;20198;-77
2021/08/24 06:25:00;;;;;;;5.80;5.27;;;;;;;20.77;100.00;96495.00;4961462;28;20230;-77
2021/08/24 06:27:27;;;;;;;5.57;5.10;;;;;;;20.83;100.00;96501.34;4962522;28;20209;-77
2021/08/24 06:29:54;;;;;;;6.47;5.87;;;;;;;21.04;100.00;96510.81;4965010;28;20284;-77
2021/08/24 06:32:30;;;;;;;6.57;5.37;;;;;;;21.19;100.00;96497.94;4974057;28;20284;-77
2021/08/24 06:34:59;;;;;;;8.07;4.80;;;;;;;21.33;100.00;96501.28;4973641;28;20546;-77
2021/08/24 06:37:26;;;;;;;7.53;5.27;;;;;;;21.45;100.00;96504.91;4973579;28;20208;-77
2021/08/24 06:39:54;;;;;;;6.87;6.23;;;;;;;21.58;100.00;96501.31;4973703;28;20291;-77
2021/08/24 06:42:21;;;;;;;5.57;4.87;;;;;;;21.66;100.00;96502.84;4973385;28;20315;-77
2021/08/24 06:44:48;;;;;;;5.40;4.90;;;;;;;21.67;100.00;96507.97;4973566;28;20213;-77
2021/08/24 06:47:15;;;;;;;8.30;5.40;;;;;;;21.73;100.00;96506.28;4973288;28;20197;-78
2021/08/24 06:49:42;;;;;;;5.97;5.27;;;;;;;21.87;100.00;96510.44;4973827;28;20212;-77
2021/08/24 06:52:11;;;;;;;5.00;4.60;;;;;;;22.03;100.00;96517.00;4973303;28;20197;-77
2021/08/24 06:54:38;;;;;;;4.97;4.47;;;;;;;22.21;100.00;96526.94;4973375;28;20640;-77
2021/08/24 06:57:06;;;;;;;5.87;4.73;;;;;;;22.38;100.00;96522.59;4970223;28;20212;-77
2021/08/24 06:59:39;;;;;;;5.27;4.23;;;;;;;22.56;100.00;96521.72;4973397;28;20259;-77
2021/08/24 07:02:07;;;;;;;15.73;12.47;;;;;;;22.66;100.00;96521.16;4973263;28;20709;-77
2021/08/24 07:04:35;;;;;;;6.20;5.67;;;;;;;22.96;100.00;96535.34;4973529;28;20616;-78
2021/08/24 07:07:02;;;;;;;14.67;13.43;;;;;;;23.06;100.00;96532.09;4960929;28;20743;-77
2021/08/24 07:09:31;;;;;;;33.07;30.07;;;;;;;23.24;100.00;96534.72;4960280;28;20217;-77
2021/08/24 07:11:59;;;;;;;5.73;5.23;;;;;;;23.31;100.00;96539.97;4953825;29;20591;-77
2021/08/24 07:14:26;;;;;;;6.37;5.87;;;;;;;23.59;100.00;96535.72;4953978;29;20201;-77
2021/08/24 07:16:53;;;;;;;25.13;18.50;;;;;;;23.70;100.00;96540.34;4953805;28;20591;-77
2021/08/24 07:19:20;;;;;;;6.17;5.67;;;;;;;23.88;100.00;96542.88;4953909;29;20210;-77
2021/08/24 07:21:47;;;;;;;26.27;19.70;;;;;;;23.99;100.00;96543.09;4953417;28;20411;-77
2021/08/24 07:24:15;;;;;;;125.33;106.73;;;;;;;24.06;100.00;96544.56;4952509;28;20218;-77
2021/08/24 07:26:43;;;;;;;13.33;11.13;;;;;;;24.30;100.00;96542.63;4967063;28;20204;-78
2021/08/24 07:29:10;;;;;;;4.50;4.10;;;;;;;24.83;100.00;96540.69;4970570;28;20205;-78
2021/08/24 07:31:38;;;;;;;5.37;4.10;;;;;;;25.01;100.00;96550.38;4970003;28;20213;-77
2021/08/24 07:34:06;;;;;;;6.03;5.33;;;;;;;24.90;100.00;96544.88;4971595;28;20203;-77
2021/08/24 07:36:33;;;;;;;7.07;3.50;;;;;;;25.21;100.00;96542.69;4975720;28;20255;-77
2021/08/24 07:39:01;;;;;;;6.07;5.10;;;;;;;25.39;100.00;96549.72;4976944;28;20203;-77
2021/08/24 07:41:28;;;;;;;194.07;126.70;;;;;;;25.74;100.00;96554.00;4977010;28;20212;-77
2021/08/24 07:43:57;;;;;;;114.87;72.50;;;;;;;25.77;100.00;96551.63;4976658;28;20721;-77
2021/08/24 07:46:24;;;;;;;188.20;107.07;;;;;;;26.03;100.00;96546.59;4976929;28;20582;-78
2021/08/24 07:48:51;;;;;;;72.37;45.00;;;;;;;26.31;100.00;96545.59;4977117;28;20284;-77
2021/08/24 07:51:21;;;;;;;17.50;11.67;;;;;;;26.15;100.00;96544.63;4976617;28;20346;-77
2021/08/24 07:53:48;;;;;;;4.77;3.57;;;;;;;26.48;100.00;96545.53;4976756;28;20197;-77
2021/08/24 07:56:15;;;;;;;9.50;6.70;;;;;;;26.50;100.00;96543.44;4976102;28;20196;-77
2021/08/24 07:58:43;;;;;;;16.33;9.18;;;;;;;27.04;100.00;96546.91;4976582;28;20204;-78
2021/08/24 08:01:11;;;;;;;5.55;4.53;;;;;;;27.63;100.00;96545.22;4976516;28;20694;-78
2021/08/24 08:03:39;;;;;;;4.40;3.30;;;;;;;27.74;100.00;96538.81;4976691;28;20594;-78
2021/08/24 08:06:06;;;;;;;3.60;3.30;;;;;;;27.69;100.00;96549.59;4976477;28;20581;-78
2021/08/24 08:08:33;;;;;;;10.45;8.65;;;;;;;27.29;100.00;96550.09;4976325;28;20264;-78
2021/08/24 08:11:01;;;;;;;4.15;3.75;;;;;;;27.47;100.00;96542.44;4976363;28;20243;-78
2021/08/24 08:13:29;;;;;;;4.20;3.28;;;;;;;27.43;100.00;96546.72;4976197;28;20200;-78
2021/08/24 08:15:57;;;;;;;3.00;2.80;;;;;;;28.24;100.00;96545.56;4976035;28;20216;-78
2021/08/24 08:18:25;;;;;;;3.63;3.15;;;;;;;28.58;100.00;96542.47;4975811;28;20205;-77
2021/08/24 08:20:53;;;;;;;3.25;3.03;;;;;;;28.58;100.00;96546.00;4976519;28;20201;-78
2021/08/24 08:23:21;;;;;;;3.35;3.10;;;;;;;28.05;100.00;96547.09;4975719;28;20670;-78
2021/08/24 08:25:49;;;;;;;5.30;3.60;;;;;;;27.94;100.00;96536.25;4976089;28;20236;-78
2021/08/24 08:28:16;;;;;;;4.40;4.00;;;;;;;27.64;100.00;96533.34;4975581;28;20208;-77
2021/08/24 08:30:45;;;;;;;3.50;3.20;;;;;;;27.50;100.00;96531.13;4975819;28;20674;-77
2021/08/24 08:33:13;;;;;;;3.67;3.28;;;;;;;27.50;100.00;96533.81;4976106;28;20291;-77
2021/08/24 08:35:42;;;;;;;3.20;3.00;;;;;;;27.82;100.00;96530.25;4976135;28;20205;-77
2021/08/24 08:38:10;;;;;;;3.05;2.85;;;;;;;28.28;100.00;96529.66;4976038;28;20324;-77
2021/08/24 08:40:47;;;;;;;4.45;3.47;;;;;;;28.26;100.00;96529.09;4975930;28;20205;-77
2021/08/24 08:43:23;;;;;;;3.17;2.97;;;;;;;28.30;100.00;96532.88;4975584;28;20303;-77
2021/08/24 08:45:52;;;;;;;15.55;3.85;;;;;;;28.83;100.00;96523.59;4975510;28;20209;-78
2021/08/24 08:48:41;;;;;;;3.20;2.92;;;;;;;29.14;100.00;96527.16;4975264;28;20292;-78
2021/08/24 08:51:28;;;;;;;4.20;3.60;;;;;;;29.29;100.00;96520.09;4975937;28;20193;-78
2021/08/24 08:54:07;;;;;;;3.35;3.05;;;;;;;29.43;100.00;96513.03;4975660;28;20189;-78
2021/08/24 08:56:43;;;;;;;4.50;3.30;;;;;;;29.21;100.00;96510.63;4975815;28;20280;-78
2021/08/24 08:59:14;;;;;;;3.50;3.20;;;;;;;29.36;100.00;96515.22;4975779;28;20570;-77
2021/08/24 09:01:50;;;;;;;3.50;3.30;;;;;;;29.44;100.00;96514.66;4975380;28;20232;-78
2021/08/24 09:04:22;;;;;;;4.32;3.92;;;;;;;29.55;100.00;96510.06;4975450;28;20219;-78
2021/08/24 09:06:56;;;;;;;4.00;3.60;;;;;;;29.20;100.00;96513.59;4975145;28;20193;-78
2021/08/24 09:09:25;;;;;;;4.30;3.85;;;;;;;29.75;100.00;96511.94;4975746;28;20276;-78
2021/08/24 09:11:53;;;;;;;3.83;3.53;;;;;;;29.90;100.00;96506.47;4975438;28;20283;-78
2021/08/24 09:14:25;;;;;;;4.03;3.67;;;;;;;29.93;100.00;96505.94;4975238;28;20197;-78
2021/08/24 09:17:00;;;;;;;4.93;4.53;;;;;;;29.82;100.00;96504.31;4975437;28;20667;-78
2021/08/24 09:19:33;;;;;;;4.40;4.00;;;;;;;30.13;100.00;96498.78;4975065;28;20196;-78
2021/08/24 09:22:01;;;;;;;4.70;4.30;;;;;;;30.26;100.00;96493.59;4975053;28;20200;-78
2021/08/24 09:24:31;;;;;;;4.03;3.63;;;;;;;30.56;100.00;96498.06;4975110;28;20233;-78
2021/08/24 09:27:03;;;;;;;5.18;4.20;;;;;;;30.33;100.00;96488.69;4974802;28;20201;-78
2021/08/24 09:29:34;;;;;;;4.65;4.25;;;;;;;30.27;100.00;96489.00;4974711;28;20284;-78
2021/08/24 09:32:03;;;;;;;3.67;3.38;;;;;;;30.03;100.00;96488.78;4974867;28;20232;-78
2021/08/24 09:34:35;;;;;;;4.78;4.03;;;;;;;29.81;100.00;96497.28;4974926;28;20205;-78
2021/08/24 09:37:04;;;;;;;5.03;3.90;;;;;;;29.87;100.00;96496.19;4975059;28;20211;-78
2021/08/24 09:39:55;;;;;;;7.20;4.10;;;;;;;30.20;100.00;96493.91;4974173;28;20201;-78
2021/08/24 09:42:33;;;;;;;4.32;3.92;;;;;;;29.70;100.00;96485.69;4972450;28;20244;-78
2021/08/24 09:45:02;;;;;;;4.28;3.60;;;;;;;30.41;100.00;96490.00;4972886;28;20701;-78
2021/08/24 09:47:29;;;;;;;4.72;3.97;;;;;;;30.89;100.00;96487.53;4973385;28;20201;-78
2021/08/24 09:50:03;;;;;;;4.40;4.00;;;;;;;30.88;100.00;96480.50;4973249;28;20760;-78
2021/08/24 09:52:37;;;;;;;4.20;3.90;;;;;;;30.52;100.00;96479.94;4973070;28;20197;-78
2021/08/24 09:55:07;;;;;;;3.75;3.45;;;;;;;30.59;100.00;96477.72;4972978;28;20185;-77
2021/08/24 09:57:38;;;;;;;3.70;3.40;;;;;;;30.06;100.00;96477.41;4974349;28;20622;-78
2021/08/24 10:00:08;;;;;;;3.88;3.58;;;;;;;30.66;100.00;96463.81;4974837;28;20217;-78
2021/08/24 10:02:39;;;;;;;4.53;4.05;;;;;;;30.50;100.00;96473.97;4974240;28;20193;-79
2021/08/24 10:05:10;;;;;;;3.55;3.30;;;;;;;30.34;100.00;96473.22;4975010;28;20287;-77
2021/08/24 10:07:41;;;;;;;5.32;3.60;;;;;;;30.40;100.00;96465.88;4974193;28;20193;-79
2021/08/24 10:10:21;;;;;;;4.28;3.90;;;;;;;30.33;100.00;96474.31;4974077;28;20193;-78
2021/08/24 10:12:51;;;;;;;4.15;3.75;;;;;;;30.04;100.00;96469.56;4974424;28;20547;-78
2021/08/24 10:15:29;;;;;;;4.70;3.70;;;;;;;30.54;100.00;96464.97;4974143;28;20182;-78
2021/08/24 10:18:05;;;;;;;3.95;3.65;;;;;;;31.19;100.00;96450.38;4973783;28;20189;-78
2021/08/24 10:20:35;;;;;;;3.95;3.65;;;;;;;30.84;100.00;96459.66;4974508;28;20272;-78
2021/08/24 10:23:08;;;;;;;3.78;3.47;;;;;;;30.69;100.00;96460.53;4973879;28;20201;-78
2021/08/24 10:25:44;;;;;;;3.42;3.20;;;;;;;30.44;100.00;96448.75;4974264;28;20209;-78
2021/08/24 10:28:21;;;;;;;3.97;3.67;;;;;;;30.51;100.00;96443.81;4973801;28;20569;-78
2021/08/24 10:30:52;;;;;;;5.03;3.92;;;;;;;30.50;100.00;96439.50;4974137;28;20185;-78
2021/08/24 10:33:27;;;;;;;4.25;3.85;;;;;;;30.21;100.00;96436.72;4974024;28;20189;-78
2021/08/24 10:36:01;;;;;;;4.38;3.97;;;;;;;30.59;100.00;96437.03;4973224;28;20272;-78
2021/08/24 10:38:44;;;;;;;3.60;3.30;;;;;;;30.77;100.00;96438.25;4973713;28;20224;-79
2021/08/24 10:41:34;;;;;;;5.20;3.95;;;;;;;31.18;100.00;96443.34;4973730;28;20211;-79
2021/08/24 10:44:07;;;;;;;4.15;3.83;;;;;;;30.88;100.00;96439.78;4973521;28;20745;-78
2021/08/24 10:46:47;;;;;;;3.88;3.50;;;;;;;30.84;100.00;96437.94;4973420;28;20209;-78
2021/08/24 10:49:14;;;;;;;4.53;3.42;;;;;;;31.21;100.00;96434.59;4973755;28;20220;-78
2021/08/24 10:51:51;;;;;;;4.65;3.67;;;;;;;31.47;100.00;96430.56;4973280;28;20295;-78
2021/08/24 10:54:33;;;;;;;4.32;3.90;;;;;;;31.01;100.00;96436.44;4973876;28;20239;-78
2021/08/24 10:57:19;;;;;;;3.58;3.20;;;;;;;31.11;100.00;96429.31;4973737;28;20276;-78
2021/08/24 10:59:55;;;;;;;5.72;4.05;;;;;;;31.19;100.00;96423.22;4973207;28;20189;-78
2021/08/24 11:02:34;;;;;;;3.75;3.38;;;;;;;30.81;100.00;96430.38;4973492;28;20582;-78
2021/08/24 11:05:17;;;;;;;3.72;3.45;;;;;;;30.66;100.00;96428.56;4973557;28;20216;-77
2021/08/24 11:07:54;;;;;;;4.93;3.78;;;;;;;31.12;100.00;96423.56;4973238;28;20606;-78
2021/08/24 11:10:33;;;;;;;3.50;3.20;;;;;;;31.29;100.00;96423.13;4972615;28;20189;-78
2021/08/24 11:13:20;;;;;;;3.47;3.28;;;;;;;31.42;100.00;96418.97;4973181;28;20192;-78
2021/08/24 11:15:56;;;;;;;3.88;3.58;;;;;;;31.34;100.00;96414.94;4973271;28;20200;-79
2021/08/24 11:18:33;;;;;;;3.53;3.20;;;;;;;31.13;100.00;96422.47;4973381;28;20208;-79
2021/08/24 11:21:06;;;;;;;7.40;4.22;;;;;;;31.58;100.00;96414.16;4972973;28;20185;-79
2021/08/24 11:23:58;;;;;;;6.22;3.30;;;;;;;31.47;100.00;96413.47;4973276;28;20185;-79
2021/08/24 11:26:34;;;;;;;5.18;3.38;;;;;;;31.38;100.00;96412.47;4973275;28;20616;-79
2021/08/24 11:29:17;;;;;;;3.55;3.25;;;;;;;31.55;100.00;96409.28;4973208;28;20215;-79
2021/08/24 11:31:51;;;;;;;3.90;3.55;;;;;;;31.60;100.00;96404.63;4973188;28;20204;-80
2021/08/24 11:34:23;;;;;;;3.42;3.22;;;;;;;31.88;100.00;96396.72;4973346;28;20275;-80
2021/08/24 11:36:56;;;;;;;4.78;3.83;;;;;;;31.84;100.00;96401.09;4972955;28;20736;-79
2021/08/24 11:39:28;;;;;;;6.60;3.63;;;;;;;31.63;100.00;96405.97;4973191;28;20215;-79
2021/08/24 11:42:02;;;;;;;3.58;3.22;;;;;;;31.76;100.00;96410.66;4972969;28;20225;-79